Time;durP1;ratioP1;P1;durP2;ratioP2;P2;SDS_P1;SDS_P2;PMS_P1;PMS_P2;Temp;Humidity;BMP_temperature;BMP_pressure;BME280_temperature;BME280_humidity;BME280_pressure;Samples;Min_cycle;Max_cycle;Signal;HPM_P1;HPM_P2
2022/04/26 05:01:29;;;;;;;18.98;14.05;;;10.50;99.90;;;;;;6077849;23;21324;-74
2022/04/26 05:03:54;;;;;;;19.45;14.90;;;10.50;99.90;;;;;;6205825;23;20017;-74
2022/04/26 05:06:20;;;;;;;18.55;13.88;;;10.40;99.90;;;;;;6203978;23;20011;-75
2022/04/26 05:08:46;;;;;;;19.25;13.95;;;10.50;99.90;;;;;;6203902;23;20044;-74
2022/04/26 05:11:12;;;;;;;20.10;15.40;;;10.60;99.90;;;;;;6204883;23;20040;-73
2022/04/26 05:13:38;;;;;;;20.02;14.50;;;10.60;99.90;;;;;;6204446;23;20001;-75
2022/04/26 05:16:05;;;;;;;19.67;13.75;;;10.60;99.90;;;;;;6185843;23;20017;-76
2022/04/26 05:18:31;;;;;;;20.50;15.07;;;10.70;99.90;;;;;;6120688;23;20076;-75
2022/04/26 05:20:57;;;;;;;20.00;14.82;;;10.70;99.90;;;;;;6173677;23;20005;-75
2022/04/26 05:26:07;;;;;;;22.20;15.27;;;10.80;99.90;;;;;;6174431;23;20294;-75
2022/04/26 05:28:33;;;;;;;22.90;15.65;;;10.80;99.90;;;;;;6173819;23;19994;-74
2022/04/26 05:30:59;;;;;;;23.17;16.25;;;10.70;99.90;;;;;;6168411;23;20029;-74
2022/04/26 05:33:27;;;;;;;24.00;17.48;;;10.70;99.90;;;;;;6174574;23;19993;-74
2022/04/26 05:35:53;;;;;;;;;;;10.70;99.90;;;;;;6138143;23;20283;-74
2022/04/26 05:38:19;;;;;;;25.20;16.95;;;10.70;99.90;;;;;;6164237;23;19908;-74
2022/04/26 05:40:48;;;;;;;25.85;17.50;;;10.70;99.90;;;;;;6173872;23;20008;-76
2022/04/26 05:43:13;;;;;;;25.15;17.08;;;10.60;99.90;;;;;;6174809;23;20002;-75
2022/04/26 05:45:39;;;;;;;24.00;16.42;;;10.60;99.90;;;;;;6170172;23;20017;-75
2022/04/26 05:48:05;;;;;;;24.02;15.30;;;10.70;99.90;;;;;;6173333;23;20291;-75
2022/04/26 05:50:32;;;;;;;25.83;16.58;;;10.80;99.90;;;;;;6174106;23;20017;-77
2022/04/26 05:52:58;;;;;;;27.83;17.52;;;10.80;99.90;;;;;;6173448;23;20005;-75
2022/04/26 05:55:24;;;;;;;29.45;18.10;;;10.80;99.90;;;;;;6174030;23;20055;-75
2022/04/26 05:57:50;;;;;;;24.40;15.63;;;10.80;99.90;;;;;;6172460;23;20023;-75
2022/04/26 06:00:16;;;;;;;22.25;15.52;;;10.80;99.90;;;;;;6172608;23;20064;-75
2022/04/26 06:02:42;;;;;;;24.63;15.65;;;10.80;99.90;;;;;;6173531;23;20024;-75
2022/04/26 06:05:10;;;;;;;24.25;15.10;;;10.80;99.90;;;;;;6171619;23;20033;-75
2022/04/26 06:07:36;;;;;;;23.20;16.13;;;10.90;99.90;;;;;;6173548;23;20283;-74
2022/04/26 06:10:02;;;;;;;25.23;15.32;;;11.00;99.90;;;;;;6172956;23;20002;-74
2022/04/26 06:12:28;;;;;;;22.65;15.00;;;11.00;99.90;;;;;;6148413;23;20045;-75
2022/04/26 06:14:55;;;;;;;20.65;14.88;;;10.90;99.90;;;;;;6173319;23;20013;-75
2022/04/26 06:17:20;;;;;;;19.38;13.82;;;10.90;99.90;;;;;;6161144;23;20009;-75
2022/04/26 06:19:46;;;;;;;20.52;14.10;;;10.90;99.90;;;;;;6137625;23;20204;-75
2022/04/26 06:22:13;;;;;;;24.40;15.63;;;10.90;99.90;;;;;;6174580;23;20001;-75
2022/04/26 06:24:39;;;;;;;19.35;14.13;;;10.90;99.90;;;;;;6173980;23;20033;-75
2022/04/26 06:27:05;;;;;;;23.17;14.75;;;10.90;99.90;;;;;;6173936;23;20276;-75
2022/04/26 06:29:31;;;;;;;21.42;15.02;;;11.00;99.90;;;;;;6173116;23;20068;-76
2022/04/26 06:31:57;;;;;;;20.30;14.77;;;11.10;99.90;;;;;;6165093;23;20021;-75
2022/04/26 06:34:22;;;;;;;20.40;14.00;;;11.10;99.90;;;;;;6138301;23;20014;-75
2022/04/26 06:36:48;;;;;;;18.20;13.00;;;11.20;99.90;;;;;;6147299;23;20054;-75
2022/04/26 06:39:14;;;;;;;15.40;11.73;;;11.20;99.90;;;;;;6174291;23;20064;-74
2022/04/26 06:41:42;;;;;;;15.52;11.80;;;11.20;99.90;;;;;;6173809;23;20061;-74
2022/04/26 06:44:08;;;;;;;16.85;12.27;;;11.30;99.90;;;;;;6173647;23;20061;-75
2022/04/26 06:46:36;;;;;;;16.75;11.82;;;11.30;99.90;;;;;;6159826;23;20060;-74
2022/04/26 06:49:05;;;;;;;16.92;11.88;;;11.30;99.90;;;;;;6203825;23;20076;-74
2022/04/26 06:51:38;;;;;;;16.35;12.25;;;11.30;99.90;;;;;;6203981;23;20016;-75
2022/04/26 06:54:04;;;;;;;15.10;11.88;;;11.30;99.90;;;;;;6202617;23;20005;-77
2022/04/26 06:56:30;;;;;;;14.68;11.23;;;11.20;99.90;;;;;;6204113;23;20020;-75
2022/04/26 06:58:56;;;;;;;14.32;10.73;;;11.10;99.90;;;;;;6165929;23;20013;-76
2022/04/26 07:01:21;;;;;;;13.90;10.38;;;11.20;99.90;;;;;;6168924;23;20076;-76
2022/04/26 07:03:51;;;;;;;18.05;13.30;;;11.30;99.90;;;;;;6174417;23;20005;-79
2022/04/26 07:06:17;;;;;;;13.57;9.95;;;11.30;99.90;;;;;;6114426;23;20307;-75
2022/04/26 07:08:42;;;;;;;15.45;12.38;;;11.40;99.90;;;;;;6175077;23;20012;-76
2022/04/26 07:11:08;;;;;;;15.43;12.48;;;11.30;99.90;;;;;;6174540;23;20010;-74
2022/04/26 07:13:36;;;;;;;16.98;11.77;;;11.40;99.90;;;;;;6174684;23;20008;-76
2022/04/26 07:16:02;;;;;;;17.40;12.52;;;11.40;99.90;;;;;;6138000;23;20029;-74
2022/04/26 07:18:28;;;;;;;20.63;14.20;;;11.60;99.90;;;;;;6175336;23;20065;-77
2022/04/26 07:20:54;;;;;;;19.73;14.68;;;11.60;99.90;;;;;;6138675;23;20048;-74
2022/04/26 07:23:20;;;;;;;16.42;12.68;;;11.50;99.90;;;;;;6175003;23;20009;-74
2022/04/26 07:25:46;;;;;;;16.45;11.60;;;11.70;99.90;;;;;;6174893;23;20052;-76
2022/04/26 07:28:12;;;;;;;12.98;9.80;;;11.90;99.90;;;;;;6148708;23;20065;-77
2022/04/26 07:30:39;;;;;;;11.02;7.88;;;12.10;99.90;;;;;;6171619;23;20020;-75
2022/04/26 07:35:52;;;;;;;9.82;6.97;;;12.70;99.90;;;;;;6163254;23;20047;-74
2022/04/26 07:38:18;;;;;;;7.75;6.28;;;12.90;99.90;;;;;;6174637;23;20009;-74
2022/04/26 07:40:43;;;;;;;10.18;6.43;;;13.00;99.90;;;;;;6175162;23;19990;-74
2022/04/26 07:43:09;;;;;;;7.72;6.50;;;13.10;99.90;;;;;;6176435;23;20352;-75
2022/04/26 07:45:40;;;;;;;9.80;6.50;;;13.10;99.90;;;;;;6171827;23;20021;-75
2022/04/26 07:48:07;;;;;;;8.98;6.95;;;13.00;99.90;;;;;;6147739;23;20008;-75
2022/04/26 07:50:34;;;;;;;8.85;7.22;;;12.90;99.90;;;;;;6174337;23;20005;-75
2022/04/26 07:53:01;;;;;;;9.77;7.15;;;12.80;99.90;;;;;;6174321;23;20025;-74
2022/04/26 07:55:28;;;;;;;8.25;6.70;;;12.80;99.90;;;;;;6175136;23;20131;-75
2022/04/26 07:57:53;;;;;;;9.73;7.47;;;12.80;99.90;;;;;;6174627;23;20065;-74
2022/04/26 08:00:19;;;;;;;9.68;7.68;;;12.70;99.90;;;;;;6172760;23;20009;-74
2022/04/26 08:02:46;;;;;;;9.50;7.32;;;12.70;99.90;;;;;;6174598;23;20263;-73
2022/04/26 08:05:14;;;;;;;9.90;7.10;;;12.60;99.90;;;;;;6172272;23;20268;-74
2022/04/26 08:07:41;;;;;;;10.13;7.20;;;12.80;99.90;;;;;;6172751;23;20032;-74
2022/04/26 08:10:11;;;;;;;9.85;7.72;;;12.80;99.90;;;;;;6173278;23;20002;-74
2022/04/26 08:12:38;;;;;;;8.80;6.88;;;12.80;99.90;;;;;;6173477;23;20371;-74
2022/04/26 08:15:04;;;;;;;9.43;7.07;;;12.90;99.90;;;;;;6172702;23;20005;-74
2022/04/26 08:17:30;;;;;;;10.75;7.30;;;12.90;99.90;;;;;;6173676;23;20326;-75
2022/04/26 08:19:56;;;;;;;9.40;7.05;;;12.90;99.90;;;;;;6173728;23;20001;-75
2022/04/26 08:22:21;;;;;;;8.68;6.55;;;12.80;99.90;;;;;;6173969;23;20369;-73
2022/04/26 08:27:33;;;;;;;8.82;6.68;;;12.80;99.90;;;;;;6174041;23;20002;-75
2022/04/26 08:30:02;;;;;;;9.32;6.97;;;12.70;99.90;;;;;;6173397;23;19993;-75
2022/04/26 08:32:55;;;;;;;7.75;6.47;;;12.80;99.90;;;;;;6189908;23;20012;-75
2022/04/26 08:35:24;;;;;;;8.68;6.18;;;12.80;99.90;;;;;;6203868;23;20011;-76
2022/04/26 08:37:50;;;;;;;8.32;6.80;;;12.80;99.90;;;;;;6203905;23;20005;-75
2022/04/26 08:40:16;;;;;;;9.40;6.82;;;12.70;99.90;;;;;;6193006;23;20065;-75
2022/04/26 08:42:44;;;;;;;8.45;6.55;;;12.90;99.90;;;;;;6203517;23;20063;-75
2022/04/26 08:45:13;;;;;;;8.38;6.68;;;13.10;99.90;;;;;;6175479;23;20044;-75
2022/04/26 08:53:10;;;;;;;7.00;6.30;;;13.80;99.90;;;;;;6202442;23;20107;-74
2022/04/26 08:55:47;;;;;;;9.07;6.63;;;14.10;99.70;;;;;;6203394;23;20032;-74
2022/04/26 08:58:14;;;;;;;9.68;6.72;;;14.10;99.90;;;;;;6166899;23;20115;-74
2022/04/26 09:00:42;;;;;;;8.02;6.75;;;14.40;99.30;;;;;;6200121;23;20064;-73
2022/04/26 09:03:08;;;;;;;7.97;6.78;;;14.40;99.00;;;;;;6202649;23;20072;-75
2022/04/26 09:05:35;;;;;;;9.88;7.10;;;14.30;98.80;;;;;;6203447;23;20058;-73
2022/04/26 09:08:18;;;;;;;11.43;7.68;;;14.30;98.60;;;;;;6202658;23;20000;-72
2022/04/26 09:10:48;;;;;;;9.00;6.93;;;14.40;98.80;;;;;;6203227;23;20194;-75
2022/04/26 09:13:17;;;;;;;9.20;6.35;;;14.60;97.90;;;;;;6201414;23;20031;-75
2022/04/26 09:15:54;;;;;;;8.20;5.85;;;14.80;96.90;;;;;;6166274;23;20223;-74
2022/04/26 09:18:26;;;;;;;8.55;5.88;;;14.80;96.40;;;;;;6203865;23;20001;-74
2022/04/26 09:20:58;;;;;;;8.27;7.03;;;14.50;95.50;;;;;;6193337;23;20013;-72
2022/04/26 09:23:28;;;;;;;9.65;6.55;;;14.40;96.80;;;;;;6203532;23;20016;-74
2022/04/26 09:26:09;;;;;;;9.05;6.32;;;14.30;96.30;;;;;;6202641;23;20009;-75
2022/04/26 09:28:38;;;;;;;8.65;6.25;;;14.10;95.30;;;;;;6203838;23;20001;-74
2022/04/26 09:31:33;;;;;;;;;;;14.20;95.80;;;;;;6198065;23;20027;-75
2022/04/26 09:34:23;;;;;;;9.75;6.05;;;14.20;95.40;;;;;;6167023;23;19947;-74
2022/04/26 09:36:50;;;;;;;9.10;6.00;;;14.40;95.40;;;;;;6177065;23;20001;-75
2022/04/26 09:39:24;;;;;;;9.55;5.82;;;14.50;94.80;;;;;;6202935;23;20001;-74
2022/04/26 09:41:51;;;;;;;7.28;5.78;;;14.60;94.30;;;;;;6203226;23;20001;-74
2022/04/26 09:44:17;;;;;;;7.45;5.60;;;14.50;93.60;;;;;;6202098;23;20004;-73
2022/04/26 09:46:43;;;;;;;8.77;6.28;;;14.50;94.80;;;;;;6195316;23;20009;-74
2022/04/26 09:49:10;;;;;;;10.45;5.32;;;14.80;93.00;;;;;;6202492;23;20023;-74
2022/04/26 09:51:39;;;;;;;7.78;5.70;;;15.20;92.30;;;;;;6176889;23;20240;-74
2022/04/26 09:54:06;;;;;;;7.03;4.90;;;15.40;91.90;;;;;;6202315;23;20011;-74
2022/04/26 09:56:32;;;;;;;6.95;4.88;;;15.60;91.70;;;;;;6202828;23;20012;-74
2022/04/26 09:59:00;;;;;;;9.27;5.00;;;15.70;90.90;;;;;;6202377;23;20036;-75
2022/04/26 10:01:42;;;;;;;7.38;4.57;;;15.50;89.60;;;;;;6196551;23;20044;-74
2022/04/26 10:04:12;;;;;;;7.15;4.00;;;15.60;88.00;;;;;;6142568;23;20209;-74
2022/04/26 10:06:41;;;;;;;7.72;4.40;;;15.80;89.30;;;;;;6142142;23;20298;-74
2022/04/26 10:09:08;;;;;;;7.28;3.92;;;16.00;86.20;;;;;;6142363;23;20001;-74
2022/04/26 10:11:35;;;;;;;5.73;4.00;;;16.50;85.60;;;;;;6143105;23;20016;-73
2022/04/26 10:14:03;;;;;;;5.28;4.15;;;16.50;85.50;;;;;;6142882;23;20237;-75
2022/04/26 10:16:29;;;;;;;6.28;4.05;;;16.80;84.50;;;;;;6168566;23;20036;-73
2022/04/26 10:19:06;;;;;;;6.20;3.92;;;16.90;83.50;;;;;;6202879;23;20001;-73
2022/04/26 10:21:40;;;;;;;6.32;3.75;;;16.70;83.20;;;;;;6202710;23;20001;-73
2022/04/26 10:24:18;;;;;;;6.40;3.70;;;16.50;82.10;;;;;;6202279;23;20164;-75
2022/04/26 10:26:44;;;;;;;5.63;4.05;;;16.50;81.90;;;;;;6202677;23;20005;-73
2022/04/26 10:29:10;;;;;;;5.68;3.70;;;16.40;80.40;;;;;;6202541;23;20011;-73
2022/04/26 10:31:36;;;;;;;4.47;3.15;;;16.00;82.50;;;;;;6196582;23;20203;-76
2022/04/26 10:34:20;;;;;;;5.90;4.03;;;16.20;81.90;;;;;;6204408;23;20001;-74
2022/04/26 10:37:00;;;;;;;5.90;3.22;;;16.30;82.00;;;;;;6143456;23;20056;-74
2022/04/26 10:39:38;;;;;;;4.97;3.33;;;16.30;80.70;;;;;;6204543;23;20001;-73
2022/04/26 10:42:17;;;;;;;6.18;4.03;;;16.30;81.60;;;;;;6167853;23;20305;-74
2022/04/26 10:44:48;;;;;;;5.45;3.42;;;16.20;81.10;;;;;;6204566;23;20032;-74
2022/04/26 10:47:18;;;;;;;6.53;3.85;;;16.30;79.80;;;;;;6194166;23;20092;-75
2022/04/26 10:49:45;;;;;;;6.25;3.88;;;16.60;81.70;;;;;;6205062;23;20012;-75
2022/04/26 10:52:34;;;;;;;7.10;3.72;;;16.80;79.00;;;;;;6204244;23;20008;-75
2022/04/26 10:55:06;;;;;;;6.07;3.30;;;17.10;80.50;;;;;;6193768;23;20008;-75
2022/04/26 10:57:49;;;;;;;4.53;3.10;;;17.40;76.30;;;;;;6204463;23;20001;-75
2022/04/26 11:00:18;;;;;;;4.68;3.25;;;17.90;74.00;;;;;;6201422;23;20052;-75
2022/04/26 11:02:46;;;;;;;6.65;3.10;;;17.30;76.00;;;;;;6219025;23;20023;-74
2022/04/26 11:05:24;;;;;;;5.95;3.30;;;17.00;77.40;;;;;;6233757;23;20294;-74
2022/04/26 11:07:50;;;;;;;4.03;2.80;;;17.00;77.00;;;;;;6234469;23;20005;-75
2022/04/26 11:10:24;;;;;;;5.28;2.85;;;17.20;75.00;;;;;;6234453;23;20175;-75
2022/04/26 11:12:53;;;;;;;5.60;2.72;;;17.70;76.40;;;;;;6235013;23;20005;-74
2022/04/26 11:15:21;;;;;;;5.50;2.65;;;18.30;72.20;;;;;;6203908;23;20322;-74
2022/04/26 11:17:49;;;;;;;5.72;2.55;;;18.70;71.90;;;;;;6234426;23;20310;-74
2022/04/26 11:20:17;;;;;;;;;;;18.60;70.30;;;;;;6234397;23;20266;-75
2022/04/26 11:22:49;;;;;;;6.13;4.18;;;18.10;73.20;;;;;;6172910;23;19899;-74
2022/04/26 11:28:11;;;;;;;6.80;5.25;;;16.40;84.90;;;;;;6234221;23;20016;-76
2022/04/26 11:30:45;;;;;;;7.10;5.35;;;15.50;87.20;;;;;;6231752;23;20125;-73
2022/04/26 11:33:22;;;;;;;11.88;5.18;;;15.80;88.10;;;;;;6233790;23;20343;-75
2022/04/26 11:35:58;;;;;;;6.05;5.05;;;16.70;85.30;;;;;;6235388;23;20290;-75
2022/04/26 11:38:25;;;;;;;6.35;4.75;;;16.90;83.80;;;;;;6234828;23;20035;-74
2022/04/26 11:40:56;;;;;;;5.53;4.78;;;16.50;82.80;;;;;;6234597;23;20011;-74
2022/04/26 11:43:24;;;;;;;7.05;4.55;;;16.80;82.50;;;;;;6234558;23;20024;-75
2022/04/26 11:45:52;;;;;;;5.53;4.20;;;17.80;80.50;;;;;;6229918;23;20017;-76
2022/04/26 11:48:19;;;;;;;6.80;4.05;;;19.00;77.50;;;;;;6235198;23;20012;-76
2022/04/26 11:50:48;;;;;;;4.90;3.87;;;19.30;75.60;;;;;;6235118;23;20012;-76
2022/04/26 11:53:16;;;;;;;4.47;3.53;;;20.10;73.70;;;;;;6234531;23;20000;-76
2022/04/26 11:55:43;;;;;;;5.88;3.75;;;19.60;72.70;;;;;;6234858;23;20215;-76
2022/04/26 11:58:27;;;;;;;5.43;3.83;;;18.60;74.30;;;;;;6234291;23;20024;-76
2022/04/26 12:01:03;;;;;;;5.55;3.88;;;18.10;76.00;;;;;;6229397;23;20115;-76
2022/04/26 12:03:41;;;;;;;6.63;3.92;;;17.30;79.10;;;;;;6235292;23;20027;-74
2022/04/26 12:06:09;;;;;;;6.43;4.20;;;16.90;80.50;;;;;;6233228;23;20354;-76
2022/04/26 12:08:56;;;;;;;5.35;3.30;;;16.80;81.70;;;;;;6234137;23;20001;-75
2022/04/26 12:11:26;;;;;;;4.78;3.33;;;18.10;80.40;;;;;;6234079;23;20015;-76
2022/04/26 12:14:08;;;;;;;5.32;3.10;;;19.80;76.60;;;;;;6234111;23;20283;-74
2022/04/26 12:16:42;;;;;;;4.85;2.85;;;21.80;72.10;;;;;;6196446;23;20016;-75
2022/04/26 12:19:08;;;;;;;4.25;2.90;;;21.70;71.80;;;;;;6233675;23;20004;-74
2022/04/26 12:21:54;;;;;;;5.28;3.08;;;21.10;68.50;;;;;;6234358;23;20000;-76
2022/04/26 12:24:25;;;;;;;4.90;3.42;;;20.00;67.60;;;;;;6233685;23;20001;-74
2022/04/26 12:27:10;;;;;;;7.88;3.90;;;19.00;70.40;;;;;;6235072;23;20023;-74
2022/04/26 12:29:36;;;;;;;5.70;4.13;;;18.00;72.70;;;;;;6234478;23;20121;-74
2022/04/26 12:32:24;;;;;;;6.63;4.60;;;16.80;75.40;;;;;;6224142;23;20078;-76
2022/04/26 12:34:54;;;;;;;7.18;4.13;;;16.00;78.80;;;;;;6234942;23;20059;-75
2022/04/26 12:37:31;;;;;;;7.72;5.30;;;15.60;81.90;;;;;;6234252;23;20032;-73
2022/04/26 12:40:11;;;;;;;9.60;5.35;;;15.20;83.50;;;;;;6235198;23;20000;-77
2022/04/26 12:42:39;;;;;;;7.70;5.18;;;15.30;83.90;;;;;;6235526;23;20278;-75
2022/04/26 12:45:24;;;;;;;6.03;3.28;;;15.10;85.50;;;;;;6207065;23;20009;-75
2022/04/26 12:50:54;;;;;;;7.28;2.45;;;14.40;82.20;;;;;;6234104;23;20159;-75
2022/04/26 12:53:26;;;;;;;5.78;3.03;;;13.80;90.00;;;;;;6233785;23;20012;-76
2022/04/26 12:55:53;;;;;;;3.78;2.47;;;12.90;93.10;;;;;;6234600;23;20290;-75
2022/04/26 12:58:37;;;;;;;4.80;2.70;;;12.00;97.80;;;;;;6234890;23;20016;-75
2022/04/26 13:01:04;;;;;;;7.25;2.90;;;11.50;96.90;;;;;;6230167;23;20026;-75
2022/04/26 13:03:30;;;;;;;4.55;2.83;;;11.20;97.20;;;;;;6234737;23;20024;-75
2022/04/26 13:06:11;;;;;;;4.70;2.58;;;11.00;97.10;;;;;;6234884;23;20012;-76
2022/04/26 13:08:39;;;;;;;5.82;2.60;;;10.90;98.80;;;;;;6235098;23;20000;-76
2022/04/26 13:11:06;;;;;;;4.38;2.83;;;11.00;99.90;;;;;;6234247;23;20001;-77
2022/04/26 13:13:33;;;;;;;3.70;2.83;;;11.00;99.60;;;;;;6234750;23;20055;-75
2022/04/26 13:16:00;;;;;;;5.13;2.83;;;11.20;99.90;;;;;;6230402;23;20060;-77
2022/04/26 13:18:26;;;;;;;3.97;2.60;;;11.50;99.90;;;;;;6233825;23;20004;-75
2022/04/26 13:20:54;;;;;;;3.53;2.20;;;11.80;98.80;;;;;;6234842;23;20004;-74
2022/04/26 13:23:20;;;;;;;;;;;12.10;96.70;;;;;;6235284;23;20008;-75
2022/04/26 13:25:46;;;;;;;4.70;2.65;;;12.70;97.80;;;;;;6234788;23;19928;-75
2022/04/26 13:28:12;;;;;;;4.60;2.53;;;13.10;94.80;;;;;;6234559;23;20191;-74
2022/04/26 13:30:38;;;;;;;3.67;2.50;;;13.80;96.30;;;;;;6231898;23;20008;-73
2022/04/26 13:33:04;;;;;;;4.00;1.95;;;15.40;93.60;;;;;;6234357;23;20001;-77
2022/04/26 13:35:30;;;;;;;2.97;1.60;;;17.50;89.90;;;;;;6234859;23;20067;-75
2022/04/26 13:37:58;;;;;;;2.92;1.80;;;18.30;86.30;;;;;;6235420;23;20338;-75
2022/04/26 13:40:24;;;;;;;2.22;1.30;;;18.80;81.80;;;;;;6207486;23;20009;-76
2022/04/26 13:42:51;;;;;;;1.75;1.17;;;19.90;76.70;;;;;;6234796;23;20213;-75
2022/04/26 13:45:19;;;;;;;2.42;0.88;;;20.20;73.80;;;;;;6196589;23;20034;-74
2022/04/26 13:47:45;;;;;;;2.75;1.25;;;22.30;71.10;;;;;;6234436;23;20008;-74
2022/04/26 13:50:12;;;;;;;2.85;1.20;;;23.30;65.50;;;;;;6234319;23;20135;-74
2022/04/26 13:52:40;;;;;;;1.88;1.30;;;23.70;64.80;;;;;;6208173;23;20000;-74
2022/04/26 13:55:06;;;;;;;;;;;24.50;63.90;;;;;;6234803;23;20008;-75
2022/04/26 13:57:33;;;;;;;2.65;1.40;;;24.20;61.50;;;;;;6234224;23;19906;-74
2022/04/26 13:59:59;;;;;;;3.03;1.48;;;24.30;62.90;;;;;;6234518;23;20001;-74
2022/04/26 14:02:25;;;;;;;2.58;1.10;;;24.50;60.10;;;;;;6191240;23;20207;-73
2022/04/26 14:04:51;;;;;;;2.78;0.93;;;23.40;63.30;;;;;;6204285;23;20001;-75
2022/04/26 14:07:19;;;;;;;2.05;1.25;;;22.30;60.90;;;;;;6204247;23;20011;-75
2022/04/26 14:09:45;;;;;;;2.83;1.40;;;20.90;64.30;;;;;;6205334;23;20004;-75
2022/04/26 14:12:14;;;;;;;3.15;1.48;;;21.80;63.10;;;;;;6205070;23;20012;-73
2022/04/26 14:22:54;;;;;;;3.75;2.05;;;22.20;60.80;;;;;;6206947;23;20001;-75
2022/04/26 14:25:20;;;;;;;2.55;1.58;;;21.00;64.00;;;;;;6205499;23;20035;-75
2022/04/26 14:27:49;;;;;;;2.60;1.48;;;20.70;63.20;;;;;;6206712;23;20011;-75
2022/04/26 14:30:16;;;;;;;4.90;2.35;;;20.60;65.80;;;;;;6203121;23;20004;-75
2022/04/26 14:32:44;;;;;;;2.95;2.00;;;19.70;66.40;;;;;;6194870;23;20155;-75
2022/04/26 14:35:10;;;;;;;3.70;2.00;;;19.30;69.00;;;;;;6206110;23;20001;-75
2022/04/26 14:37:36;;;;;;;3.63;2.00;;;19.70;68.70;;;;;;6206742;23;19993;-78
2022/04/26 14:40:03;;;;;;;4.30;2.10;;;19.10;69.90;;;;;;6206947;23;20005;-75
2022/04/26 14:42:32;;;;;;;2.72;1.80;;;18.70;69.50;;;;;;6195842;23;20009;-75
2022/04/26 14:44:58;;;;;;;3.33;2.00;;;17.90;70.70;;;;;;6207155;23;20100;-76
2022/04/26 14:47:27;;;;;;;3.40;1.80;;;17.10;72.00;;;;;;6195926;23;20017;-75
2022/04/26 14:49:56;;;;;;;2.95;1.77;;;18.30;71.20;;;;;;6206379;23;20060;-74
2022/04/26 14:52:28;;;;;;;3.00;1.95;;;21.40;65.50;;;;;;6204880;23;20001;-75
2022/04/26 14:54:55;;;;;;;2.90;1.80;;;24.00;60.50;;;;;;6204762;23;20009;-75
2022/04/26 14:57:21;;;;;;;7.40;2.28;;;25.60;58.50;;;;;;6204101;23;20310;-75
2022/04/26 14:59:47;;;;;;;2.25;1.23;;;27.00;56.00;;;;;;6206359;23;20001;-75
2022/04/26 15:02:18;;;;;;;1.80;1.17;;;27.80;54.80;;;;;;6200822;23;20059;-75
2022/04/26 15:04:45;;;;;;;2.25;1.10;;;28.70;51.90;;;;;;6236356;23;20005;-76
2022/04/26 15:07:11;;;;;;;2.63;1.38;;;26.90;53.70;;;;;;6209955;23;20004;-75
2022/04/26 15:09:43;;;;;;;2.70;1.65;;;25.40;54.30;;;;;;6236100;23;20039;-74
2022/04/26 15:17:48;;;;;;;2.75;1.52;;;20.80;62.40;;;;;;6197622;23;20054;-76
2022/04/26 15:20:17;;;;;;;3.67;1.77;;;21.10;62.60;;;;;;6234456;23;20005;-76
2022/04/26 15:22:43;;;;;;;3.13;1.95;;;20.60;62.90;;;;;;6235024;23;20000;-75
2022/04/26 15:25:09;;;;;;;3.30;1.70;;;19.80;64.70;;;;;;6233343;23;20068;-75
2022/04/26 15:27:39;;;;;;;4.90;1.90;;;19.30;65.50;;;;;;6234848;23;20001;-75
2022/04/26 15:30:07;;;;;;;2.90;2.20;;;18.40;66.90;;;;;;6234548;23;20356;-75
2022/04/26 15:32:33;;;;;;;3.80;1.95;;;17.50;69.40;;;;;;6234839;23;20064;-75
2022/04/26 15:34:59;;;;;;;3.97;2.00;;;16.90;71.00;;;;;;6234622;23;20001;-76
2022/04/26 15:37:25;;;;;;;4.93;2.30;;;16.30;73.80;;;;;;6207254;23;20204;-73
2022/04/26 15:39:53;;;;;;;3.13;2.10;;;15.90;74.90;;;;;;6234168;23;20043;-75
2022/04/26 15:42:19;;;;;;;2.53;1.63;;;15.50;76.70;;;;;;6233766;23;20000;-75
2022/04/26 15:44:45;;;;;;;2.88;1.60;;;15.10;77.60;;;;;;6234322;23;20075;-75
2022/04/26 15:47:11;;;;;;;4.85;1.80;;;14.80;78.90;;;;;;6222773;23;20032;-74
2022/04/26 15:49:37;;;;;;;3.92;2.50;;;14.50;80.30;;;;;;6235018;23;20001;-76
2022/04/26 15:52:03;;;;;;;5.18;2.92;;;14.30;88.90;;;;;;6208530;23;20000;-74
2022/04/26 15:54:29;;;;;;;4.57;2.92;;;13.60;92.30;;;;;;6197539;23;20066;-75
2022/04/26 15:56:55;;;;;;;5.45;3.53;;;13.10;93.50;;;;;;6233813;23;20295;-74
2022/04/26 15:59:21;;;;;;;4.20;3.28;;;12.70;94.80;;;;;;6233819;23;20007;-75
2022/04/26 16:01:47;;;;;;;3.97;2.97;;;12.50;94.70;;;;;;6226448;23;20033;-76
2022/04/26 16:04:13;;;;;;;5.47;2.92;;;12.30;96.30;;;;;;6172353;23;20012;-76
2022/04/26 16:06:41;;;;;;;4.75;2.80;;;12.10;96.10;;;;;;6198093;23;20012;-76
2022/04/26 16:20:28;;;;;;;3.15;1.80;;;18.70;81.10;;;;;;6233756;23;20332;-76
2022/04/26 16:22:59;;;;;;;2.90;1.45;;;17.40;81.60;;;;;;6234638;23;20004;-76
2022/04/26 16:25:26;;;;;;;2.85;1.63;;;16.60;80.40;;;;;;6233559;23;20283;-76
2022/04/26 16:27:52;;;;;;;3.65;1.98;;;15.70;83.50;;;;;;6196946;23;20035;-75
2022/04/26 16:30:17;;;;;;;3.33;1.90;;;14.80;86.00;;;;;;6231450;23;20011;-75
2022/04/26 16:32:44;;;;;;;2.90;1.92;;;14.20;89.60;;;;;;6234586;23;20000;-77
2022/04/26 16:35:13;;;;;;;4.18;2.10;;;13.90;90.70;;;;;;6234071;23;20004;-76
2022/04/26 16:37:40;;;;;;;4.28;2.10;;;13.60;91.10;;;;;;6234677;23;20088;-74
2022/04/26 16:40:07;;;;;;;2.65;1.63;;;13.40;91.70;;;;;;6234470;23;19993;-75
2022/04/26 16:42:33;;;;;;;4.32;2.47;;;13.60;92.60;;;;;;6207519;23;20146;-74
2022/04/26 16:44:58;;;;;;;3.72;2.40;;;13.90;92.20;;;;;;6234225;23;20013;-74
2022/04/26 16:47:25;;;;;;;2.38;1.60;;;13.90;90.80;;;;;;6223903;23;20024;-75
2022/04/26 16:49:50;;;;;;;2.90;1.70;;;13.80;90.50;;;;;;6198097;23;20000;-74
2022/04/26 16:52:16;;;;;;;3.20;1.70;;;13.50;90.60;;;;;;6234167;23;20310;-75
2022/04/26 16:54:42;;;;;;;2.53;1.75;;;13.40;91.10;;;;;;6234381;23;20051;-75
2022/04/26 16:57:08;;;;;;;3.03;1.63;;;13.10;92.00;;;;;;6234135;23;20014;-76
2022/04/26 16:59:34;;;;;;;2.50;1.50;;;13.00;91.50;;;;;;6233727;23;20000;-74
2022/04/26 17:01:59;;;;;;;2.40;1.40;;;12.90;91.30;;;;;;6225011;23;20012;-75
2022/04/26 17:04:26;;;;;;;2.35;1.20;;;12.70;91.30;;;;;;6232891;23;20001;-75
2022/04/26 17:06:52;;;;;;;2.47;1.70;;;12.60;92.10;;;;;;6234016;23;20066;-76
2022/04/26 17:09:20;;;;;;;3.75;1.45;;;12.80;92.30;;;;;;6207241;23;20338;-75
2022/04/26 17:11:47;;;;;;;;;;;12.90;91.70;;;;;;6234929;23;19999;-74
2022/04/26 17:14:18;;;;;;;2.42;1.27;;;13.00;92.00;;;;;;6233271;23;19899;-75
2022/04/26 17:16:51;;;;;;;3.50;1.30;;;13.20;91.60;;;;;;6227047;23;20021;-75
2022/04/26 17:19:18;;;;;;;2.28;1.30;;;13.40;91.30;;;;;;6196374;23;20202;-75
2022/04/26 17:21:47;;;;;;;3.33;1.30;;;13.50;91.60;;;;;;6234007;23;20064;-74
2022/04/26 17:27:02;;;;;;;;;;;13.10;91.10;;;;;;6174137;23;20057;-74
2022/04/26 17:29:28;;;;;;;2.50;1.20;;;12.90;90.80;;;;;;6233164;23;19899;-74
2022/04/26 17:31:54;;;;;;;2.20;1.25;;;12.60;91.80;;;;;;6225376;23;20012;-75
2022/04/26 17:34:22;;;;;;;2.30;1.10;;;12.30;92.40;;;;;;6233468;23;20286;-75
2022/04/26 17:36:48;;;;;;;2.85;1.20;;;12.20;92.90;;;;;;6206539;23;20010;-75
2022/04/26 17:39:14;;;;;;;2.25;1.23;;;12.10;93.20;;;;;;6206701;23;20004;-76
2022/04/26 17:41:40;;;;;;;2.13;1.17;;;12.10;93.50;;;;;;6233877;23;20023;-75
2022/04/26 17:44:08;;;;;;;2.20;1.33;;;12.00;93.40;;;;;;6234251;23;20000;-75
2022/04/26 17:46:34;;;;;;;2.40;1.35;;;12.00;93.70;;;;;;6226999;23;20028;-76
2022/04/26 17:49:00;;;;;;;3.70;1.40;;;11.90;93.80;;;;;;6234590;23;20028;-76
2022/04/26 17:51:26;;;;;;;2.70;1.70;;;11.80;94.20;;;;;;6232805;23;20012;-75
2022/04/26 17:56:39;;;;;;;2.40;1.23;;;11.70;94.00;;;;;;6233870;23;20179;-75
2022/04/26 17:59:05;;;;;;;;;;;11.50;94.10;;;;;;6234392;23;20075;-76
2022/04/26 18:01:31;;;;;;;4.57;1.65;;;11.40;94.20;;;;;;6225665;23;20126;-76
2022/04/26 18:03:57;;;;;;;2.83;1.50;;;11.30;94.40;;;;;;6196688;23;20036;-76
2022/04/26 18:06:24;;;;;;;3.47;1.58;;;11.20;94.60;;;;;;6232751;23;20013;-75
2022/04/26 18:08:49;;;;;;;2.20;1.10;;;11.20;94.70;;;;;;6234173;23;20005;-75
2022/04/26 18:11:19;;;;;;;2.63;1.30;;;11.10;95.10;;;;;;6232609;23;20003;-76
2022/04/26 18:13:47;;;;;;;3.47;1.50;;;11.00;95.20;;;;;;6233380;23;20005;-75
2022/04/26 18:16:13;;;;;;;2.30;1.33;;;11.00;95.30;;;;;;6227797;23;20013;-75
2022/04/26 18:18:39;;;;;;;2.17;1.10;;;11.00;95.20;;;;;;6233433;23;20001;-75
2022/04/26 18:21:05;;;;;;;2.85;1.42;;;10.90;95.30;;;;;;6234585;23;20321;-74
2022/04/26 18:23:31;;;;;;;2.80;1.52;;;10.90;95.30;;;;;;6233933;23;20313;-75
2022/04/26 18:26:10;;;;;;;2.70;1.30;;;10.90;95.20;;;;;;6209109;23;20062;-75
2022/04/26 18:28:46;;;;;;;2.22;1.27;;;10.80;95.70;;;;;;6233597;23;20008;-75
2022/04/26 18:31:14;;;;;;;3.10;1.52;;;10.70;96.20;;;;;;6228257;23;20020;-75
2022/04/26 18:33:41;;;;;;;3.00;1.55;;;10.80;95.80;;;;;;6196788;23;20031;-75
2022/04/26 18:36:08;;;;;;;2.92;1.70;;;10.80;95.90;;;;;;6233496;23;19992;-76
2022/04/26 18:38:45;;;;;;;2.63;1.55;;;10.80;95.30;;;;;;6206895;23;20001;-75
2022/04/26 18:41:12;;;;;;;3.70;2.08;;;10.80;95.70;;;;;;6234213;23;20008;-76
2022/04/26 18:43:38;;;;;;;3.65;1.77;;;10.70;95.80;;;;;;6233111;23;20060;-77